createdAt,value
2023-01-25T00:00:31.512Z,5.20
2023-01-25T00:02:59.214Z,5.37
2023-01-25T00:05:26.111Z,5.00
2023-01-25T00:07:53.029Z,5.63
2023-01-25T00:10:20.268Z,5.80
2023-01-25T00:12:47.260Z,5.00
2023-01-25T00:15:14.683Z,5.30
2023-01-25T00:17:41.795Z,5.13
2023-01-25T00:20:09.805Z,5.70
2023-01-25T00:22:36.710Z,5.27
2023-01-25T00:25:03.766Z,5.20
2023-01-25T00:27:30.747Z,6.03
2023-01-25T00:29:57.679Z,5.70
2023-01-25T00:32:47.909Z,5.40
2023-01-25T00:35:15.396Z,5.83
2023-01-25T00:37:50.112Z,6.00
2023-01-25T00:40:18.283Z,5.87
2023-01-25T00:42:45.249Z,5.53
2023-01-25T00:45:13.313Z,6.50
2023-01-25T00:47:40.464Z,6.67
2023-01-25T00:50:08.513Z,6.20
2023-01-25T00:52:35.730Z,5.93
2023-01-25T00:55:03.627Z,6.33
2023-01-25T00:57:31.260Z,6.87
2023-01-25T00:59:58.213Z,4.90
2023-01-25T01:02:25.068Z,5.43
2023-01-25T01:04:53.654Z,6.00
2023-01-25T01:07:20.540Z,5.50
2023-01-25T01:09:47.464Z,5.63
2023-01-25T01:12:14.407Z,6.50
2023-01-25T01:14:42.318Z,4.73
2023-01-25T01:17:09.155Z,5.93
2023-01-25T01:19:36.119Z,5.00
2023-01-25T01:22:03.014Z,4.60
2023-01-25T01:24:30.076Z,5.17
2023-01-25T01:26:57.171Z,6.37
2023-01-25T01:29:24.234Z,6.00
2023-01-25T01:31:52.723Z,6.30
2023-01-25T01:34:23.275Z,5.20
2023-01-25T01:36:50.493Z,5.50
2023-01-25T01:39:17.682Z,5.57
2023-01-25T01:41:44.681Z,6.33
2023-01-25T01:44:22.769Z,5.90
2023-01-25T01:46:59.773Z,5.63
2023-01-25T01:49:32.891Z,6.83
2023-01-25T01:52:16.090Z,6.27
2023-01-25T01:55:03.733Z,6.57
2023-01-25T01:57:44.908Z,6.72
2023-01-25T02:00:13.596Z,6.28
2023-01-25T02:02:42.306Z,5.53
2023-01-25T02:05:20.035Z,5.70
2023-01-25T02:07:49.891Z,5.68
2023-01-25T02:10:21.995Z,5.30
2023-01-25T02:12:53.073Z,5.27
2023-01-25T02:15:20.182Z,5.90
2023-01-25T02:17:49.922Z,5.25
2023-01-25T02:20:25.666Z,5.32
2023-01-25T02:22:52.454Z,6.07
2023-01-25T02:25:19.765Z,6.37
2023-01-25T02:27:53.605Z,5.10
2023-01-25T02:30:20.899Z,5.27
2023-01-25T02:32:47.790Z,5.60
2023-01-25T02:35:20.019Z,5.70
2023-01-25T02:37:46.991Z,5.73
2023-01-25T02:40:13.905Z,5.70
2023-01-25T02:42:43.964Z,5.83
2023-01-25T02:45:16.636Z,5.60
2023-01-25T02:47:43.558Z,5.80
2023-01-25T02:50:11.091Z,5.47
2023-01-25T02:52:38.175Z,6.70
2023-01-25T02:55:06.123Z,5.67
2023-01-25T02:57:33.245Z,6.20
2023-01-25T03:00:00.177Z,6.22
2023-01-25T03:02:28.655Z,4.70
2023-01-25T03:04:55.650Z,6.20
2023-01-25T03:07:22.710Z,6.07
2023-01-25T03:09:50.088Z,6.13
2023-01-25T03:12:16.991Z,6.77
2023-01-25T03:14:44.967Z,6.90
2023-01-25T03:17:11.948Z,6.22
2023-01-25T03:19:38.975Z,6.37
2023-01-25T03:22:06.978Z,6.17
2023-01-25T03:24:33.896Z,6.30
2023-01-25T03:27:18.549Z,6.73
2023-01-25T03:30:02.069Z,7.20
2023-01-25T03:32:32.427Z,6.35
2023-01-25T03:35:05.623Z,6.25
2023-01-25T03:37:34.507Z,6.70
2023-01-25T03:40:01.669Z,6.38
2023-01-25T03:42:30.760Z,6.72
2023-01-25T03:44:58.921Z,6.80
2023-01-25T03:47:26.350Z,6.32
2023-01-25T03:49:53.444Z,6.30
2023-01-25T03:52:20.474Z,6.27
2023-01-25T03:55:19.817Z,5.53
2023-01-25T03:57:49.210Z,6.80
2023-01-25T04:00:17.308Z,6.35
2023-01-25T04:02:48.204Z,5.75
2023-01-25T04:05:18.688Z,5.60
2023-01-25T04:07:45.660Z,6.05
2023-01-25T04:10:13.577Z,6.22
2023-01-25T04:12:44.622Z,6.30
2023-01-25T04:15:11.866Z,5.90
2023-01-25T04:17:39.855Z,6.13
2023-01-25T04:20:17.836Z,5.57
2023-01-25T04:22:45.076Z,5.65
2023-01-25T04:25:12.246Z,6.00
2023-01-25T04:27:44.749Z,6.07
2023-01-25T04:30:15.406Z,5.60
2023-01-25T04:32:44.534Z,5.20
2023-01-25T04:35:32.041Z,5.43
2023-01-25T04:38:00.620Z,5.37
2023-01-25T04:40:34.906Z,5.50
2023-01-25T04:43:01.839Z,4.93
2023-01-25T04:45:30.576Z,5.80
2023-01-25T04:47:59.938Z,5.67
2023-01-25T04:50:28.281Z,5.70
2023-01-25T04:52:56.214Z,5.67
2023-01-25T04:55:24.189Z,5.80
2023-01-25T04:57:52.740Z,6.15
2023-01-25T05:00:20.916Z,5.90
2023-01-25T05:02:49.451Z,5.40
2023-01-25T05:05:16.724Z,5.70
2023-01-25T05:07:46.221Z,5.87
2023-01-25T05:10:14.090Z,5.80
2023-01-25T05:12:55.343Z,5.90
2023-01-25T05:15:22.437Z,5.80
2023-01-25T05:17:49.354Z,6.17
2023-01-25T05:20:16.516Z,6.00
2023-01-25T05:22:43.395Z,5.87
2023-01-25T05:25:30.264Z,6.20
2023-01-25T05:30:50.381Z,5.83
2023-01-25T05:33:24.235Z,6.80
2023-01-25T05:35:51.126Z,5.93
2023-01-25T05:38:18.289Z,5.60
2023-01-25T05:40:45.304Z,8.77
2023-01-25T05:43:12.723Z,6.87
2023-01-25T05:45:40.417Z,7.00
2023-01-25T05:48:08.420Z,6.37
2023-01-25T05:50:35.762Z,6.10
2023-01-25T05:53:11.121Z,6.47
2023-01-25T05:55:39.119Z,6.03
2023-01-25T05:58:15.822Z,5.78
2023-01-25T06:00:43.397Z,5.90
2023-01-25T06:03:18.319Z,6.07
2023-01-25T06:05:45.737Z,5.70
2023-01-25T06:08:12.786Z,5.27
2023-01-25T06:10:51.378Z,5.80
2023-01-25T06:13:18.984Z,5.27
2023-01-25T06:15:54.256Z,5.00
2023-01-25T06:18:39.812Z,5.47
2023-01-25T06:21:37.217Z,4.83
2023-01-25T06:24:05.171Z,5.40
2023-01-25T06:26:32.250Z,5.63
2023-01-25T06:28:59.304Z,5.00
2023-01-25T06:31:26.387Z,5.23
2023-01-25T06:33:53.642Z,5.13
2023-01-25T06:36:23.038Z,4.87
2023-01-25T06:38:51.906Z,4.53
2023-01-25T06:41:20.130Z,4.70
2023-01-25T06:43:48.209Z,4.93
2023-01-25T06:46:15.760Z,5.37
2023-01-25T06:48:45.692Z,5.67
2023-01-25T06:51:14.053Z,5.73
2023-01-25T06:53:43.616Z,5.17
2023-01-25T06:56:12.986Z,6.70
2023-01-25T06:58:40.548Z,5.03
2023-01-25T07:01:30.632Z,6.10
2023-01-25T07:03:59.466Z,4.00
2023-01-25T07:06:33.381Z,4.67
2023-01-25T07:09:12.854Z,4.50
2023-01-25T07:11:39.881Z,4.50
2023-01-25T07:14:07.089Z,4.33
2023-01-25T07:16:36.869Z,4.50
2023-01-25T07:19:05.730Z,4.40
2023-01-25T07:21:33.314Z,4.70
2023-01-25T07:24:05.162Z,3.70
2023-01-25T07:26:33.014Z,3.67
2023-01-25T07:29:00.553Z,4.50
2023-01-25T07:31:28.524Z,4.57
2023-01-25T07:33:57.387Z,4.20
2023-01-25T07:36:25.552Z,4.97
2023-01-25T07:38:57.280Z,5.40
2023-01-25T07:41:25.435Z,5.83
2023-01-25T07:43:53.983Z,5.70
2023-01-25T07:46:50.081Z,5.40
2023-01-25T07:49:17.041Z,6.20
2023-01-25T07:51:44.283Z,5.73
2023-01-25T07:54:12.371Z,6.13
2023-01-25T07:56:40.699Z,4.47
2023-01-25T07:59:10.394Z,5.90
2023-01-25T08:01:39.029Z,5.60
2023-01-25T08:04:06.036Z,6.37
2023-01-25T08:06:38.411Z,5.80
2023-01-25T08:09:15.033Z,5.03
2023-01-25T08:11:42.310Z,6.43
2023-01-25T08:14:09.753Z,6.23
2023-01-25T08:16:36.679Z,6.60
2023-01-25T08:19:04.190Z,5.77
2023-01-25T08:21:33.949Z,5.87
2023-01-25T08:24:04.033Z,6.90
2023-01-25T08:26:31.242Z,5.93
2023-01-25T08:28:58.639Z,6.33
2023-01-25T08:31:28.594Z,6.63
2023-01-25T08:33:56.330Z,6.77
2023-01-25T08:36:28.345Z,6.00
2023-01-25T08:39:04.633Z,6.50
2023-01-25T08:41:33.624Z,7.57
2023-01-25T08:44:00.833Z,6.50
2023-01-25T08:46:31.601Z,5.90
2023-01-25T08:49:00.843Z,5.90
2023-01-25T08:51:28.246Z,6.27
2023-01-25T08:53:55.235Z,5.63
2023-01-25T08:56:22.218Z,6.17
2023-01-25T08:58:50.245Z,5.23
2023-01-25T09:01:19.320Z,5.53
2023-01-25T09:03:49.292Z,5.33
2023-01-25T09:06:17.570Z,5.13
2023-01-25T09:08:44.730Z,5.07
2023-01-25T09:11:14.306Z,5.50
2023-01-25T09:13:44.376Z,6.00
2023-01-25T09:16:13.932Z,5.73
2023-01-25T09:18:42.295Z,5.33
2023-01-25T09:21:10.085Z,6.07
2023-01-25T09:23:50.565Z,5.80
2023-01-25T09:26:24.866Z,5.32
2023-01-25T09:28:54.154Z,6.10
2023-01-25T09:31:25.316Z,5.90
2023-01-25T09:34:02.641Z,5.30
2023-01-25T09:36:29.629Z,6.33
2023-01-25T09:38:57.191Z,6.40
2023-01-25T09:41:51.954Z,6.53
2023-01-25T09:44:31.647Z,5.73
2023-01-25T09:47:10.316Z,6.50
2023-01-25T09:50:04.492Z,5.37
2023-01-25T09:52:57.508Z,5.20
2023-01-25T09:55:27.915Z,5.27
2023-01-25T09:57:57.014Z,5.87
2023-01-25T10:00:30.279Z,7.03
2023-01-25T10:03:13.866Z,5.43
2023-01-25T10:05:48.660Z,5.63
2023-01-25T10:08:21.554Z,5.30
2023-01-25T10:10:55.933Z,7.30
2023-01-25T10:13:24.391Z,6.50
2023-01-25T10:15:56.034Z,6.63
2023-01-25T10:18:32.021Z,5.07
2023-01-25T10:21:13.925Z,7.05
2023-01-25T10:23:40.741Z,6.23
2023-01-25T10:26:33.177Z,6.40
2023-01-25T10:29:21.629Z,6.40
2023-01-25T10:31:50.625Z,6.87
2023-01-25T10:34:24.424Z,6.47
2023-01-25T10:36:55.555Z,6.97
2023-01-25T10:39:22.589Z,6.87
2023-01-25T10:41:56.847Z,6.90
2023-01-25T10:44:26.234Z,6.40
2023-01-25T10:46:53.229Z,6.87
2023-01-25T10:49:49.161Z,6.80
2023-01-25T10:52:24.723Z,6.00
2023-01-25T10:55:16.254Z,6.43
2023-01-25T10:57:55.614Z,6.57
2023-01-25T11:00:30.793Z,7.50
2023-01-25T11:02:58.065Z,7.13
2023-01-25T11:05:29.340Z,7.67
2023-01-25T11:07:57.069Z,8.87
2023-01-25T11:10:29.929Z,10.43
2023-01-25T11:13:20.943Z,8.47
2023-01-25T11:16:11.871Z,8.33
2023-01-25T11:18:51.109Z,7.50
2023-01-25T11:21:23.361Z,7.23
2023-01-25T11:24:05.476Z,6.13
2023-01-25T11:26:34.482Z,6.30
2023-01-25T11:29:16.328Z,6.23
2023-01-25T11:31:50.030Z,6.40
2023-01-25T11:34:19.637Z,5.50
2023-01-25T11:37:34.141Z,5.73
2023-01-25T11:40:33.530Z,5.20
2023-01-25T11:43:11.827Z,5.73
2023-01-25T11:45:38.734Z,5.60
2023-01-25T11:48:11.687Z,5.63
2023-01-25T11:50:42.352Z,5.53
2023-01-25T11:53:24.492Z,6.13
2023-01-25T11:56:02.091Z,5.40
2023-01-25T11:58:57.276Z,5.90
2023-01-25T12:01:42.979Z,5.67
2023-01-25T12:04:38.673Z,5.23
2023-01-25T12:07:34.822Z,5.90
2023-01-25T12:10:26.384Z,4.83
2023-01-25T12:13:11.883Z,5.17
2023-01-25T12:15:48.010Z,5.57
2023-01-25T12:18:56.951Z,5.85
2023-01-25T12:21:41.966Z,6.20
2023-01-25T12:24:11.752Z,5.47
2023-01-25T12:26:58.247Z,5.70
2023-01-25T12:29:38.102Z,6.05
2023-01-25T12:32:11.090Z,6.73
2023-01-25T12:34:40.933Z,6.80
2023-01-25T12:37:24.817Z,5.27
2023-01-25T12:40:01.773Z,6.50
2023-01-25T12:42:37.861Z,6.20
2023-01-25T12:45:22.871Z,7.30
2023-01-25T12:47:53.537Z,6.80
2023-01-25T12:50:27.622Z,6.87
2023-01-25T12:52:59.790Z,6.07
2023-01-25T12:55:27.673Z,5.97
2023-01-25T12:58:39.183Z,5.50
2023-01-25T13:01:21.133Z,6.13
2023-01-25T13:03:56.939Z,5.60
2023-01-25T13:06:50.126Z,6.43
2023-01-25T13:09:30.082Z,6.10
2023-01-25T13:11:57.148Z,6.50
2023-01-25T13:14:30.341Z,6.73
2023-01-25T13:17:28.250Z,6.90
2023-01-25T13:22:43.896Z,6.45
2023-01-25T13:25:16.904Z,7.00
2023-01-25T13:27:44.186Z,6.43
2023-01-25T13:30:34.386Z,6.20
2023-01-25T13:33:04.444Z,7.47
2023-01-25T13:35:36.907Z,7.07
2023-01-25T13:38:17.486Z,6.93
2023-01-25T13:40:44.766Z,8.47
2023-01-25T13:43:25.481Z,8.30
2023-01-25T13:46:14.293Z,8.40
2023-01-25T13:49:01.841Z,8.17
2023-01-25T13:51:33.854Z,8.00
2023-01-25T13:54:00.898Z,9.07
2023-01-25T13:56:33.786Z,7.10
2023-01-25T13:59:01.701Z,8.20
2023-01-25T14:01:31.583Z,9.20
2023-01-25T14:04:02.574Z,9.57
2023-01-25T14:06:34.120Z,9.50
2023-01-25T14:09:07.640Z,9.60
2023-01-25T14:11:39.970Z,9.73
2023-01-25T14:14:27.110Z,8.07
2023-01-25T14:17:09.676Z,7.78
2023-01-25T14:19:41.289Z,7.90
2023-01-25T14:22:13.087Z,8.10
2023-01-25T14:24:40.604Z,8.30
2023-01-25T14:27:14.330Z,8.00
2023-01-25T14:29:41.851Z,7.87
2023-01-25T14:32:18.268Z,8.63
2023-01-25T14:34:45.234Z,7.97
2023-01-25T14:37:17.980Z,8.03
2023-01-25T14:39:46.177Z,8.37
2023-01-25T14:42:13.852Z,7.70
2023-01-25T14:44:41.410Z,8.47
2023-01-25T14:47:30.414Z,8.70
2023-01-25T14:50:34.501Z,7.53
2023-01-25T14:53:16.160Z,8.20
2023-01-25T14:55:48.210Z,7.43
2023-01-25T14:58:21.461Z,8.53
2023-01-25T15:00:57.788Z,8.50
2023-01-25T15:03:26.890Z,8.07
2023-01-25T15:05:55.118Z,8.83
2023-01-25T15:08:38.551Z,8.43
2023-01-25T15:11:32.190Z,8.73
2023-01-25T15:14:03.203Z,8.93
2023-01-25T15:16:34.994Z,9.23
2023-01-25T15:19:02.972Z,8.43
2023-01-25T15:21:32.326Z,8.10
2023-01-25T15:24:06.911Z,9.13
2023-01-25T15:26:36.216Z,7.50
2023-01-25T15:29:15.953Z,9.13
2023-01-25T15:31:43.670Z,8.30
2023-01-25T15:34:25.101Z,9.23
2023-01-25T15:36:52.494Z,9.53
2023-01-25T15:39:20.443Z,9.93
2023-01-25T15:41:48.710Z,8.80
2023-01-25T15:44:17.597Z,8.77
2023-01-25T15:46:48.768Z,9.40
2023-01-25T15:49:27.589Z,11.05
2023-01-25T15:51:56.179Z,7.97
2023-01-25T15:54:24.438Z,9.57
2023-01-25T15:56:56.274Z,8.23
2023-01-25T15:59:23.428Z,10.07
2023-01-25T16:01:50.354Z,10.50
2023-01-25T16:04:17.321Z,10.63
2023-01-25T16:06:52.674Z,8.87
2023-01-25T16:09:29.587Z,9.73
2023-01-25T16:14:30.358Z,10.20
2023-01-25T16:17:03.131Z,9.00
2023-01-25T16:19:30.675Z,9.87
2023-01-25T16:21:58.092Z,9.63
2023-01-25T16:24:25.278Z,9.57
2023-01-25T16:26:57.201Z,8.27
2023-01-25T16:29:24.613Z,9.83
2023-01-25T16:31:53.221Z,8.17
2023-01-25T16:34:21.251Z,9.47
2023-01-25T16:36:53.035Z,9.67
2023-01-25T16:39:22.552Z,9.57
2023-01-25T16:41:50.152Z,10.80
2023-01-25T16:44:17.701Z,10.23
2023-01-25T16:46:45.081Z,12.17
2023-01-25T16:49:26.506Z,7.50
2023-01-25T16:51:55.062Z,8.37
2023-01-25T16:54:23.513Z,9.03
2023-01-25T16:56:52.027Z,10.13
2023-01-25T16:59:19.895Z,10.37
2023-01-25T17:01:47.312Z,9.60
2023-01-25T17:04:15.063Z,8.97
2023-01-25T17:06:47.876Z,8.23
2023-01-25T17:09:23.698Z,8.30
2023-01-25T17:11:52.041Z,8.40
2023-01-25T17:14:20.328Z,8.50
2023-01-25T17:16:50.458Z,7.67
2023-01-25T17:19:18.757Z,7.50
2023-01-25T17:21:46.428Z,8.33
2023-01-25T17:24:16.170Z,8.57
2023-01-25T17:26:43.356Z,8.50
2023-01-25T17:29:10.538Z,9.13
2023-01-25T17:31:39.808Z,7.87
2023-01-25T17:34:08.669Z,7.17
2023-01-25T17:36:35.802Z,8.63
2023-01-25T17:39:05.171Z,8.63
2023-01-25T17:41:32.191Z,7.70
2023-01-25T17:43:59.543Z,8.20
2023-01-25T17:46:33.462Z,8.27
2023-01-25T17:49:02.388Z,8.43
2023-01-25T17:51:31.323Z,8.60
2023-01-25T17:53:58.480Z,8.00
2023-01-25T17:56:26.702Z,7.90
2023-01-25T17:58:54.537Z,8.13
2023-01-25T18:01:24.526Z,9.50
2023-01-25T18:03:53.839Z,8.97
2023-01-25T18:06:31.430Z,8.77
2023-01-25T18:09:01.698Z,6.07
2023-01-25T18:11:34.150Z,8.93
2023-01-25T18:14:09.465Z,7.60
2023-01-25T18:16:38.913Z,7.87
2023-01-25T18:19:06.279Z,8.17
2023-01-25T18:21:33.994Z,7.50
2023-01-25T18:24:05.291Z,6.17
2023-01-25T18:26:35.696Z,7.77
2023-01-25T18:29:08.789Z,5.93
2023-01-25T18:31:36.378Z,7.53
2023-01-25T18:34:03.372Z,7.03
2023-01-25T18:36:30.418Z,8.10
2023-01-25T18:38:58.356Z,7.13
2023-01-25T18:41:25.239Z,7.63
2023-01-25T18:43:52.310Z,7.97
2023-01-25T18:46:19.621Z,7.73
2023-01-25T18:48:47.368Z,8.27
2023-01-25T18:51:17.836Z,8.23
2023-01-25T18:53:47.710Z,7.67
2023-01-25T18:56:19.515Z,7.60
2023-01-25T18:58:47.208Z,9.07
2023-01-25T19:01:18.026Z,8.57
2023-01-25T19:03:47.803Z,8.23
2023-01-25T19:06:15.983Z,7.57
2023-01-25T19:08:46.536Z,7.30
2023-01-25T19:11:16.341Z,8.67
2023-01-25T19:13:44.407Z,7.30
2023-01-25T19:16:19.989Z,7.70
2023-01-25T19:18:50.512Z,8.80
2023-01-25T19:21:24.048Z,7.77
2023-01-25T19:23:52.144Z,8.03
2023-01-25T19:26:20.783Z,7.50
2023-01-25T19:28:48.451Z,8.90
2023-01-25T19:31:18.060Z,8.03
2023-01-25T19:33:45.655Z,7.93
2023-01-25T19:36:19.316Z,7.67
2023-01-25T19:38:48.168Z,7.77
2023-01-25T19:41:24.568Z,8.83
2023-01-25T19:43:55.999Z,8.30
2023-01-25T19:46:27.011Z,8.33
2023-01-25T19:48:54.879Z,8.23
2023-01-25T19:51:27.875Z,7.97
2023-01-25T19:54:00.799Z,6.30
2023-01-25T19:56:33.121Z,8.73
2023-01-25T19:59:03.418Z,8.30
2023-01-25T20:01:30.723Z,8.53
2023-01-25T20:03:58.972Z,7.60
2023-01-25T20:06:27.137Z,7.57
2023-01-25T20:08:54.783Z,8.17
2023-01-25T20:11:25.941Z,7.37
2023-01-25T20:13:55.100Z,8.57
2023-01-25T20:16:22.459Z,7.77
2023-01-25T20:18:49.982Z,8.17
2023-01-25T20:21:20.015Z,8.63
2023-01-25T20:23:49.741Z,8.13
2023-01-25T20:26:20.017Z,7.57
2023-01-25T20:28:51.691Z,7.63
2023-01-25T20:31:21.518Z,8.10
2023-01-25T20:33:49.832Z,8.40
2023-01-25T20:36:20.586Z,7.77
2023-01-25T20:38:47.643Z,8.80
2023-01-25T20:41:17.141Z,7.57
2023-01-25T20:43:48.971Z,8.07
2023-01-25T20:46:17.216Z,8.57
2023-01-25T20:48:44.671Z,8.20
2023-01-25T20:51:14.142Z,8.87
2023-01-25T20:53:42.256Z,8.67
2023-01-25T20:56:10.512Z,8.37
2023-01-25T20:58:37.901Z,7.93
2023-01-25T21:01:12.753Z,8.60
2023-01-25T21:03:39.829Z,7.97
2023-01-25T21:06:07.336Z,8.03
2023-01-25T21:08:34.491Z,8.10
2023-01-25T21:11:01.572Z,8.37
2023-01-25T21:13:29.574Z,7.57
2023-01-25T21:16:07.804Z,7.90
2023-01-25T21:18:51.872Z,8.23
2023-01-25T21:21:21.794Z,9.07
2023-01-25T21:23:50.315Z,8.33
2023-01-25T21:26:23.092Z,7.83
2023-01-25T21:28:51.853Z,8.23
2023-01-25T21:31:39.821Z,8.63
2023-01-25T21:34:06.964Z,7.97
2023-01-25T21:36:33.952Z,7.03
2023-01-25T21:39:01.425Z,8.17
2023-01-25T21:41:30.964Z,8.57
2023-01-25T21:44:17.658Z,8.00
2023-01-25T21:47:00.725Z,8.57
2023-01-25T21:49:51.253Z,9.13
2023-01-25T21:52:18.202Z,9.50
2023-01-25T21:54:45.180Z,8.60
2023-01-25T21:57:12.195Z,9.83
2023-01-25T21:59:41.128Z,8.23
2023-01-25T22:02:13.260Z,8.20
2023-01-25T22:04:40.747Z,7.47
2023-01-25T22:07:09.180Z,7.63
2023-01-25T22:09:36.286Z,8.67
2023-01-25T22:12:03.344Z,8.80
2023-01-25T22:14:30.391Z,8.87
2023-01-25T22:16:57.285Z,8.27
2023-01-25T22:19:24.510Z,7.63
2023-01-25T22:21:51.665Z,8.43
2023-01-25T22:24:18.678Z,9.80
2023-01-25T22:26:45.738Z,8.33
2023-01-25T22:29:13.010Z,10.13
2023-01-25T22:31:40.166Z,7.87
2023-01-25T22:34:07.437Z,7.20
2023-01-25T22:36:34.531Z,6.17
2023-01-25T22:39:01.628Z,8.83
2023-01-25T22:41:31.348Z,7.20
2023-01-25T22:43:58.491Z,7.73
2023-01-25T22:46:27.857Z,7.47
2023-01-25T22:48:55.154Z,7.23
2023-01-25T22:51:25.682Z,8.40
2023-01-25T22:53:53.976Z,8.63
2023-01-25T22:56:23.956Z,8.60
2023-01-25T22:58:51.843Z,8.67
2023-01-25T23:01:20.718Z,7.60
2023-01-25T23:03:48.739Z,7.47
2023-01-25T23:06:18.339Z,8.10
2023-01-25T23:08:45.948Z,8.13
2023-01-25T23:11:19.508Z,5.33
2023-01-25T23:14:07.841Z,6.83
2023-01-25T23:16:35.715Z,7.27
2023-01-25T23:19:05.020Z,7.50
2023-01-25T23:21:32.198Z,6.50
2023-01-25T23:24:01.014Z,9.07
2023-01-25T23:26:29.849Z,7.87
2023-01-25T23:28:57.933Z,6.03
2023-01-25T23:31:26.290Z,7.97
2023-01-25T23:33:56.883Z,8.00
2023-01-25T23:36:27.057Z,8.70
2023-01-25T23:38:54.983Z,8.47
2023-01-25T23:41:23.673Z,7.40
2023-01-25T23:43:50.945Z,5.80
2023-01-25T23:46:18.952Z,8.23
2023-01-25T23:48:47.092Z,7.60
2023-01-25T23:51:16.249Z,7.63
2023-01-25T23:53:43.906Z,7.53
2023-01-25T23:56:17.395Z,7.77
2023-01-25T23:58:44.938Z,6.80
